Time;durP1;ratioP1;P1;durP2;ratioP2;P2;SDS_P1;SDS_P2;PMS_P1;PMS_P2;Temp;Humidity;BMP_temperature;BMP_pressure;BME280_temperature;BME280_humidity;BME280_pressure;Samples;Min_cycle;Max_cycle;Signal;HPM_P1;HPM_P2
2024/02/27 00:01:46;;;;;;;9.20;3.33;;;;;;;3.02;100.00;101159.44;4995047;28;20042;-95
2024/02/27 00:04:12;;;;;;;8.57;3.85;;;;;;;2.97;100.00;101141.41;4979917;28;20038;-95
2024/02/27 00:06:38;;;;;;;9.50;3.88;;;;;;;3.06;100.00;101147.91;4982642;28;20038;-95
2024/02/27 00:09:05;;;;;;;9.63;4.53;;;;;;;3.09;100.00;101150.41;4951855;28;20155;-95
2024/02/27 00:11:31;;;;;;;13.80;5.43;;;;;;;3.01;100.00;101158.59;4965620;28;20427;-95
2024/02/27 00:13:56;;;;;;;15.43;5.50;;;;;;;2.92;100.00;101143.38;4959948;28;20042;-95
2024/02/27 00:16:22;;;;;;;13.93;4.93;;;;;;;2.89;100.00;101148.78;4981604;28;20061;-95
2024/02/27 00:18:48;;;;;;;11.13;3.60;;;;;;;2.85;100.00;101133.25;4974958;28;20034;-95
2024/02/27 00:21:14;;;;;;;8.40;3.60;;;;;;;2.90;100.00;101140.03;4997517;28;20142;-95
2024/02/27 00:23:40;;;;;;;11.93;4.00;;;;;;;2.85;100.00;101133.25;4978025;28;20041;-95
2024/02/27 00:26:06;;;;;;;6.47;3.35;;;;;;;2.94;100.00;101123.28;4981491;28;20042;-96
2024/02/27 00:28:32;;;;;;;11.32;4.65;;;;;;;2.99;100.00;101113.44;4983270;28;20140;-95
2024/02/27 00:30:58;;;;;;;17.48;5.07;;;;;;;2.93;100.00;101096.31;4981445;28;20030;-95
2024/02/27 00:33:24;;;;;;;11.05;3.83;;;;;;;2.95;100.00;101089.25;4962062;28;20503;-95
2024/02/27 00:35:49;;;;;;;15.38;4.35;;;;;;;2.96;100.00;101093.53;4977273;28;20029;-95
2024/02/27 00:38:15;;;;;;;7.63;4.07;;;;;;;2.92;100.00;101081.56;4960286;28;20463;-96
2024/02/27 00:40:42;;;;;;;7.35;3.40;;;;;;;2.87;100.00;101075.72;4978047;28;20524;-95
2024/02/27 00:43:07;;;;;;;15.38;3.45;;;;;;;2.90;100.00;101070.34;4974157;28;20050;-95
2024/02/27 00:45:33;;;;;;;8.20;3.47;;;;;;;2.90;100.00;101069.53;4975690;28;20454;-95
2024/02/27 00:47:59;;;;;;;11.20;4.10;;;;;;;2.98;100.00;101075.19;4957321;28;20382;-94
2024/02/27 00:50:27;;;;;;;10.38;3.80;;;;;;;2.98;100.00;101070.81;4973689;28;20033;-94
2024/02/27 00:52:53;;;;;;;15.57;3.20;;;;;;;2.97;100.00;101081.34;4959118;28;20092;-96
2024/02/27 00:55:19;;;;;;;9.35;3.85;;;;;;;2.96;100.00;101088.31;4962611;28;20026;-95
2024/02/27 00:57:45;;;;;;;7.07;3.55;;;;;;;3.00;100.00;101099.47;4956691;28;20478;-95
2024/02/27 01:00:14;;;;;;;10.13;3.50;;;;;;;2.97;100.00;101105.69;4977673;28;20089;-96
2024/02/27 01:02:41;;;;;;;8.45;3.33;;;;;;;3.01;100.00;101114.19;5005452;28;20040;-95
2024/02/27 01:05:08;;;;;;;11.35;3.65;;;;;;;3.09;100.00;101119.06;4973564;28;20026;-96
2024/02/27 01:07:35;;;;;;;11.15;3.75;;;;;;;3.05;100.00;101107.91;4955433;28;20120;-95
2024/02/27 01:10:02;;;;;;;9.55;3.65;;;;;;;3.10;100.00;101120.72;4960174;28;20029;-95
2024/02/27 01:12:28;;;;;;;9.07;3.30;;;;;;;3.06;100.00;101130.47;4958997;28;20030;-95
2024/02/27 01:14:54;;;;;;;8.00;3.50;;;;;;;3.10;100.00;101120.72;4973567;28;20030;-95
2024/02/27 01:17:20;;;;;;;10.18;3.88;;;;;;;3.13;100.00;101112.72;4958744;28;20038;-96
2024/02/27 01:19:46;;;;;;;6.82;2.83;;;;;;;3.14;100.00;101109.19;4955938;28;20105;-95
2024/02/27 01:22:12;;;;;;;10.32;3.80;;;;;;;3.19;100.00;101116.78;4960946;28;20030;-95
2024/02/27 01:24:38;;;;;;;7.13;3.08;;;;;;;3.25;100.00;101121.69;4976463;28;20162;-96
2024/02/27 01:27:05;;;;;;;9.23;2.95;;;;;;;3.31;100.00;101110.91;4956404;28;20069;-95
2024/02/27 01:29:31;;;;;;;4.63;3.08;;;;;;;3.28;100.00;101100.63;4977481;28;20034;-95
2024/02/27 01:31:57;;;;;;;7.97;3.90;;;;;;;3.37;100.00;101103.69;4956352;28;20491;-95
2024/02/27 01:34:24;;;;;;;8.85;3.25;;;;;;;3.37;100.00;101099.31;4970839;28;20089;-95
2024/02/27 01:36:50;;;;;;;7.15;3.05;;;;;;;3.41;100.00;101105.25;4979538;28;20038;-95
2024/02/27 01:39:16;;;;;;;7.82;2.75;;;;;;;3.43;100.00;101096.38;4957056;28;20054;-95
2024/02/27 01:41:48;;;;;;;8.30;2.85;;;;;;;3.49;100.00;101078.69;4972348;28;20094;-95
2024/02/27 01:44:14;;;;;;;6.55;2.70;;;;;;;3.49;100.00;101079.50;4969907;28;20096;-96
2024/02/27 01:46:41;;;;;;;16.30;2.97;;;;;;;3.47;100.00;101069.13;4960732;28;20042;-96
2024/02/27 01:49:10;;;;;;;5.97;3.03;;;;;;;3.46;100.00;101054.41;4956506;28;20097;-95
2024/02/27 01:51:37;;;;;;;7.80;2.30;;;;;;;3.52;100.00;101057.63;4973658;28;20046;-95
2024/02/27 01:54:04;;;;;;;9.98;2.45;;;;;;;3.55;100.00;101065.28;4959150;28;20034;-95
2024/02/27 01:56:30;;;;;;;9.57;2.83;;;;;;;3.58;100.00;101052.88;4976911;28;20068;-95
2024/02/27 01:58:57;;;;;;;4.60;2.10;;;;;;;3.59;100.00;101044.13;4975216;28;20030;-95
2024/02/27 02:01:24;;;;;;;5.50;2.50;;;;;;;3.63;100.00;101044.78;4972574;28;20052;-95
2024/02/27 02:03:51;;;;;;;4.97;2.30;;;;;;;3.66;100.00;101039.41;4954200;28;20034;-95
2024/02/27 02:06:19;;;;;;;5.82;1.85;;;;;;;3.66;100.00;101030.72;4977241;28;20041;-95
2024/02/27 02:08:45;;;;;;;8.55;2.33;;;;;;;3.69;100.00;101044.47;4976016;28;20479;-96
2024/02/27 02:11:13;;;;;;;8.43;2.08;;;;;;;3.71;100.00;101033.91;4976649;28;20048;-96
2024/02/27 02:13:39;;;;;;;9.02;2.35;;;;;;;3.78;100.00;101034.41;4971584;28;20030;-95
2024/02/27 02:16:05;;;;;;;7.22;2.13;;;;;;;3.87;100.00;101031.28;4976029;28;20026;-96
2024/02/27 02:18:31;;;;;;;11.82;2.53;;;;;;;3.91;100.00;101017.13;4973213;28;20038;-95
2024/02/27 02:20:59;;;;;;;3.90;1.98;;;;;;;3.92;100.00;101010.94;4960093;28;20065;-94
2024/02/27 02:23:25;;;;;;;7.13;1.92;;;;;;;3.87;100.00;100980.75;4949550;28;20042;-95
2024/02/27 02:25:51;;;;;;;8.30;2.13;;;;;;;3.90;100.00;100991.03;4955883;28;20038;-95
2024/02/27 02:28:17;;;;;;;7.40;1.52;;;;;;;3.87;100.00;100975.53;4973002;28;20037;-95
2024/02/27 02:30:43;;;;;;;13.02;1.95;;;;;;;3.91;100.00;100969.19;4959324;28;20056;-95
2024/02/27 02:33:11;;;;;;;7.05;1.55;;;;;;;3.94;100.00;100959.41;4957481;28;20052;-95
2024/02/27 02:35:37;;;;;;;6.45;1.33;;;;;;;3.95;100.00;100961.06;4981408;28;20328;-95
2024/02/27 02:38:03;;;;;;;10.63;1.42;;;;;;;3.96;100.00;100947.09;4962391;28;20154;-95
2024/02/27 02:40:31;;;;;;;5.93;1.35;;;;;;;3.97;100.00;100945.28;4962778;28;20033;-94
2024/02/27 02:42:57;;;;;;;7.72;1.10;;;;;;;3.99;100.00;100943.44;4977256;28;20045;-94
2024/02/27 02:45:23;;;;;;;7.25;1.35;;;;;;;4.01;100.00;100933.72;4979273;28;20040;-95
2024/02/27 02:47:48;;;;;;;7.35;1.23;;;;;;;3.99;100.00;100930.34;4960664;28;20457;-95
2024/02/27 02:50:15;;;;;;;4.38;1.13;;;;;;;4.02;100.00;100937.16;4959627;28;20092;-95
2024/02/27 02:52:40;;;;;;;7.32;1.10;;;;;;;4.01;100.00;100935.50;4979166;28;20037;-94
2024/02/27 02:55:08;;;;;;;4.60;1.15;;;;;;;4.05;100.00;100934.38;4979473;28;20030;-95
2024/02/27 02:57:34;;;;;;;10.93;3.17;;;;;;;4.04;100.00;100917.00;4976462;28;20124;-95
2024/02/27 03:00:00;;;;;;;4.25;1.23;;;;;;;4.01;100.00;100918.03;4963802;28;20383;-96
2024/02/27 03:02:26;;;;;;;5.60;1.58;;;;;;;4.04;100.00;100923.09;4957868;28;20038;-95
2024/02/27 03:04:52;;;;;;;3.08;0.80;;;;;;;4.05;100.00;100908.22;4962071;28;20068;-95
2024/02/27 03:07:18;;;;;;;7.80;1.10;;;;;;;4.11;100.00;100923.53;4995083;28;20065;-95
2024/02/27 03:09:44;;;;;;;7.70;1.10;;;;;;;4.09;100.00;100913.19;4976062;28;20069;-96
2024/02/27 03:12:10;;;;;;;5.85;1.40;;;;;;;4.16;100.00;100910.19;4978120;28;20565;-95
2024/02/27 03:14:41;;;;;;;7.60;1.92;;;;;;;4.17;100.00;100901.44;4979717;28;20482;-95
2024/02/27 03:17:07;;;;;;;6.78;0.98;;;;;;;4.20;100.00;100896.84;4991191;28;20415;-95
2024/02/27 03:19:33;;;;;;;6.50;0.73;;;;;;;4.27;100.00;100883.41;4993501;28;20038;-96
2024/02/27 03:21:59;;;;;;;2.60;0.70;;;;;;;4.24;100.00;100879.19;4971673;28;20046;-95
2024/02/27 03:24:25;;;;;;;6.15;0.80;;;;;;;4.28;100.00;100869.38;4973766;28;20046;-96
2024/02/27 03:26:50;;;;;;;6.63;0.90;;;;;;;4.31;100.00;100862.19;4954371;28;20037;-95
2024/02/27 03:29:16;;;;;;;4.95;0.90;;;;;;;4.28;100.00;100851.06;4964013;28;20402;-94
2024/02/27 03:31:42;;;;;;;4.90;0.70;;;;;;;4.32;100.00;100842.09;4979161;28;20487;-96
2024/02/27 03:34:08;;;;;;;4.32;1.00;;;;;;;4.34;100.00;100846.31;4978020;28;20034;-95
2024/02/27 03:36:39;;;;;;;7.25;1.02;;;;;;;4.44;100.00;100850.97;4964022;28;20064;-96
2024/02/27 03:39:05;;;;;;;10.20;0.80;;;;;;;4.38;100.00;100833.03;4952645;28;20062;-95
2024/02/27 03:41:30;;;;;;;3.13;0.70;;;;;;;4.40;100.00;100826.75;4995334;28;20034;-95
2024/02/27 03:43:56;;;;;;;7.07;0.80;;;;;;;4.49;100.00;100820.09;4990775;28;20096;-95
2024/02/27 03:46:22;;;;;;;4.43;0.60;;;;;;;4.42;100.00;100800.50;4981120;28;20120;-95
2024/02/27 03:48:48;;;;;;;6.85;1.15;;;;;;;4.42;100.00;100792.63;4953473;28;20092;-94
2024/02/27 03:51:14;;;;;;;3.90;0.70;;;;;;;4.43;100.00;100792.53;4977123;28;20560;-94
2024/02/27 03:53:40;;;;;;;8.32;1.88;;;;;;;4.42;100.00;100790.03;4977886;28;20141;-95
2024/02/27 03:56:07;;;;;;;7.63;0.90;;;;;;;4.47;100.00;100791.41;4955700;28;20036;-95
2024/02/27 03:58:38;;;;;;;6.70;0.80;;;;;;;4.46;100.00;100784.50;4961452;28;20096;-94
2024/02/27 04:01:04;;;;;;;2.22;0.60;;;;;;;4.43;100.00;100792.53;4960407;28;20062;-94
2024/02/27 04:03:30;;;;;;;4.95;0.50;;;;;;;4.45;100.00;100801.16;4964107;28;20061;-95
2024/02/27 04:05:56;;;;;;;8.70;0.80;;;;;;;4.50;100.00;100813.09;4976288;28;20120;-95
2024/02/27 04:08:22;;;;;;;3.95;0.68;;;;;;;4.51;100.00;100807.75;4973822;28;20065;-94
2024/02/27 04:10:48;;;;;;;5.72;0.93;;;;;;;4.54;100.00;100797.09;4991805;28;20072;-94
2024/02/27 04:13:13;;;;;;;2.80;0.55;;;;;;;4.52;100.00;100785.06;4975480;28;20057;-96
2024/02/27 04:15:40;;;;;;;6.47;0.70;;;;;;;4.50;100.00;100774.69;4991409;28;20057;-95
2024/02/27 04:18:07;;;;;;;9.52;1.13;;;;;;;4.49;100.00;100780.84;5009045;28;20143;-94
2024/02/27 04:20:33;;;;;;;5.07;0.50;;;;;;;4.54;100.00;100781.41;4951658;28;20042;-95
2024/02/27 04:22:59;;;;;;;4.22;0.88;;;;;;;4.55;100.00;100777.84;4978181;28;20513;-95
2024/02/27 04:25:25;;;;;;;3.30;0.90;;;;;;;4.56;100.00;100761.19;4974958;28;20045;-94
2024/02/27 04:27:50;;;;;;;2.33;0.47;;;;;;;4.54;100.00;100757.84;4960458;28;20133;-94
2024/02/27 04:30:16;;;;;;;4.55;0.63;;;;;;;4.55;100.00;100759.53;4971647;28;20038;-95
2024/02/27 04:32:43;;;;;;;3.47;0.80;;;;;;;4.58;100.00;100750.63;4946205;28;20047;-95
2024/02/27 04:35:09;;;;;;;4.55;1.00;;;;;;;4.57;100.00;100748.97;4936479;28;20314;-95
2024/02/27 04:37:35;;;;;;;6.07;0.85;;;;;;;4.60;100.00;100746.16;4965922;28;20077;-95
2024/02/27 04:40:01;;;;;;;3.03;0.60;;;;;;;4.65;100.00;100745.84;4959332;28;20035;-95
2024/02/27 04:42:27;;;;;;;6.15;0.60;;;;;;;4.67;100.00;100742.19;4962192;28;20038;-94
2024/02/27 04:44:52;;;;;;;3.00;1.08;;;;;;;4.64;100.00;100724.06;4970016;28;20039;-94
2024/02/27 04:47:18;;;;;;;3.88;0.70;;;;;;;4.65;100.00;100730.97;4952237;28;20125;-94
2024/02/27 04:49:44;;;;;;;4.82;0.80;;;;;;;4.67;100.00;100731.72;4938093;28;20495;-94
2024/02/27 04:52:10;;;;;;;6.25;0.75;;;;;;;4.71;100.00;100754.13;4937232;28;20692;-95
2024/02/27 04:54:36;;;;;;;6.65;0.70;;;;;;;4.68;100.00;100736.00;4952483;28;20524;-95
2024/02/27 04:57:01;;;;;;;6.97;0.95;;;;;;;4.73;100.00;100738.31;4970841;28;20137;-95
2024/02/27 04:59:27;;;;;;;5.30;0.82;;;;;;;4.75;100.00;100733.84;4953517;28;20047;-95
2024/02/27 05:01:53;;;;;;;2.70;0.60;;;;;;;4.78;100.00;100722.34;4987466;28;20039;-96
2024/02/27 05:04:19;;;;;;;6.43;0.90;;;;;;;4.76;100.00;100713.72;4955150;28;20062;-96
2024/02/27 05:06:45;;;;;;;7.10;0.70;;;;;;;4.83;100.00;100712.38;4955374;28;20133;-96
2024/02/27 05:09:11;;;;;;;6.70;0.98;;;;;;;4.87;100.00;100720.88;4968875;28;20268;-95
2024/02/27 05:11:37;;;;;;;4.85;1.00;;;;;;;4.89;100.00;100713.78;4967570;28;20488;-95
2024/02/27 05:14:03;;;;;;;3.58;0.60;;;;;;;4.86;100.00;100709.56;4983739;28;20137;-95
2024/02/27 05:16:29;;;;;;;5.28;0.47;;;;;;;4.91;100.00;100704.88;4946947;28;20039;-95
2024/02/27 05:18:55;;;;;;;5.13;0.75;;;;;;;4.87;100.00;100690.31;4971675;28;20034;-95
2024/02/27 05:21:20;;;;;;;10.30;0.95;;;;;;;4.90;100.00;100691.88;4953345;28;20058;-95
2024/02/27 05:23:47;;;;;;;4.47;0.73;;;;;;;4.87;100.00;100690.31;4936801;28;20035;-95
2024/02/27 05:26:16;;;;;;;6.47;0.70;;;;;;;4.95;100.00;100705.50;4953795;28;20035;-96
2024/02/27 05:28:42;;;;;;;5.90;0.55;;;;;;;4.91;100.00;100691.78;4955006;28;20046;-96
2024/02/27 05:31:26;;;;;;;8.20;1.00;;;;;;;5.02;100.00;100693.69;4954182;28;20097;-96
2024/02/27 05:33:54;;;;;;;7.57;0.70;;;;;;;5.00;100.00;100690.31;4953902;28;20109;-95
2024/02/27 05:36:21;;;;;;;2.45;0.45;;;;;;;4.96;100.00;100684.47;4941910;28;20062;-96
2024/02/27 05:38:47;;;;;;;8.00;1.10;;;;;;;5.00;100.00;100685.06;4966735;28;20034;-95
2024/02/27 05:41:13;;;;;;;8.07;1.30;;;;;;;5.03;100.00;100695.34;4954850;28;20057;-95
2024/02/27 05:43:39;;;;;;;7.93;0.90;;;;;;;5.03;100.00;100687.47;4954609;28;20543;-96
2024/02/27 05:46:06;;;;;;;3.85;0.68;;;;;;;5.06;100.00;100679.44;4943297;28;20070;-95
2024/02/27 05:48:36;;;;;;;5.97;0.85;;;;;;;5.09;100.00;100675.78;4954246;28;20039;-96
2024/02/27 05:51:02;;;;;;;13.68;1.50;;;;;;;5.11;100.00;100687.00;4935834;28;20069;-96
2024/02/27 05:53:30;;;;;;;4.38;0.95;;;;;;;5.14;100.00;100670.22;4916861;28;20061;-96
2024/02/27 05:55:57;;;;;;;2.97;0.70;;;;;;;5.16;100.00;100665.72;4938494;28;20027;-95
2024/02/27 05:58:24;;;;;;;12.32;2.22;;;;;;;5.18;100.00;100664.66;4953023;28;20126;-95
2024/02/27 06:00:51;;;;;;;5.40;0.77;;;;;;;5.20;100.00;100660.19;4970531;28;20030;-95
2024/02/27 06:03:20;;;;;;;8.73;1.00;;;;;;;5.25;100.00;100659.88;4935254;28;20140;-95
2024/02/27 06:05:46;;;;;;;4.53;1.35;;;;;;;5.27;100.00;100660.56;4983469;28;20114;-95
2024/02/27 06:08:13;;;;;;;9.10;1.13;;;;;;;5.28;100.00;100651.78;4937170;28;20042;-96
2024/02/27 06:10:39;;;;;;;6.72;1.05;;;;;;;5.31;100.00;100643.72;4970422;28;20038;-96
2024/02/27 06:13:05;;;;;;;8.80;0.90;;;;;;;5.32;100.00;100641.91;4954892;28;20069;-96
2024/02/27 06:15:31;;;;;;;7.50;0.70;;;;;;;5.32;100.00;100631.44;4939914;28;20062;-96
2024/02/27 06:17:57;;;;;;;6.40;0.80;;;;;;;5.32;100.00;100634.91;4956392;28;20031;-95
2024/02/27 06:23:07;;;;;;;4.47;0.70;;;;;;;5.37;100.00;100618.84;4967497;28;20035;-96
2024/02/27 06:25:33;;;;;;;4.28;1.00;;;;;;;5.42;100.00;100613.28;4967894;28;20121;-96
2024/02/27 06:27:58;;;;;;;8.35;1.13;;;;;;;5.39;100.00;100593.38;4959952;28;20101;-95
2024/02/27 06:30:24;;;;;;;5.97;1.48;;;;;;;5.48;100.00;100593.69;4945662;28;20047;-95
2024/02/27 06:32:50;;;;;;;4.57;0.70;;;;;;;5.46;100.00;100588.56;4967206;28;20043;-95
2024/02/27 06:35:16;;;;;;;3.47;0.68;;;;;;;5.55;100.00;100608.03;4960012;28;20042;-96
2024/02/27 06:37:41;;;;;;;7.78;1.08;;;;;;;5.57;100.00;100588.63;4961939;28;20506;-95
2024/02/27 06:40:08;;;;;;;2.72;0.77;;;;;;;5.61;100.00;100580.53;4978593;28;20038;-95
2024/02/27 06:42:37;;;;;;;9.88;1.10;;;;;;;5.63;100.00;100573.41;4959175;28;20043;-95
2024/02/27 06:45:03;;;;;;;7.57;1.25;;;;;;;5.68;100.00;100576.53;4974476;28;20096;-94
2024/02/27 06:47:29;;;;;;;7.95;1.00;;;;;;;5.70;100.00;100579.91;4975262;28;20026;-95
2024/02/27 06:49:58;;;;;;;5.82;1.10;;;;;;;5.70;100.00;100572.03;4971548;28;20035;-94
2024/02/27 06:52:27;;;;;;;8.05;1.10;;;;;;;5.75;100.00;100575.16;4993915;28;20042;-95
2024/02/27 06:54:53;;;;;;;7.28;1.15;;;;;;;5.76;100.00;100562.88;4975030;28;20038;-94
2024/02/27 06:57:19;;;;;;;4.63;0.55;;;;;;;5.81;100.00;100566.03;4987563;28;20049;-95
2024/02/27 06:59:44;;;;;;;7.82;1.13;;;;;;;5.75;100.00;100543.66;4956248;28;20377;-94
2024/02/27 07:02:11;;;;;;;11.30;1.00;;;;;;;5.79;100.00;100553.00;4952319;28;20391;-94
2024/02/27 07:04:37;;;;;;;10.40;1.02;;;;;;;5.81;100.00;100552.91;4975354;28;20038;-96
2024/02/27 07:07:04;;;;;;;13.30;1.00;;;;;;;5.86;100.00;100539.47;4957158;28;20495;-96
2024/02/27 07:09:31;;;;;;;7.22;0.98;;;;;;;5.83;100.00;100535.25;4975298;28;20736;-96
2024/02/27 07:11:59;;;;;;;5.97;1.88;;;;;;;5.86;100.00;100534.22;4956634;28;20045;-96
2024/02/27 07:14:29;;;;;;;5.78;0.77;;;;;;;5.83;100.00;100522.13;4985463;28;20042;-94
2024/02/27 07:16:55;;;;;;;4.75;1.27;;;;;;;5.85;100.00;100533.34;4977722;28;20034;-95
2024/02/27 07:19:21;;;;;;;7.75;1.05;;;;;;;5.87;100.00;100535.88;4965252;28;20042;-95
2024/02/27 07:21:48;;;;;;;6.35;1.40;;;;;;;5.87;100.00;100531.47;4976402;28;20034;-96
2024/02/27 07:24:18;;;;;;;11.15;0.88;;;;;;;5.91;100.00;100532.09;4969746;28;20402;-96
2024/02/27 07:26:44;;;;;;;10.10;1.27;;;;;;;5.93;100.00;100530.19;4957822;28;20038;-94
2024/02/27 07:29:11;;;;;;;12.55;1.40;;;;;;;5.99;100.00;100534.97;4959989;28;20335;-95
2024/02/27 07:31:37;;;;;;;11.23;1.60;;;;;;;5.98;100.00;100528.06;4991189;28;20108;-96
2024/02/27 07:34:03;;;;;;;6.43;0.80;;;;;;;5.96;100.00;100515.06;4955205;28;20033;-95
2024/02/27 07:36:29;;;;;;;3.95;0.77;;;;;;;6.01;100.00;100525.22;4976843;28;20430;-95
2024/02/27 07:38:55;;;;;;;10.40;0.95;;;;;;;6.04;100.00;100525.03;4974496;28;20479;-95
2024/02/27 07:41:21;;;;;;;9.35;1.17;;;;;;;6.04;100.00;100513.66;4959620;28;20050;-95
2024/02/27 07:43:47;;;;;;;7.13;1.05;;;;;;;6.06;100.00;100509.16;4967624;28;20121;-95
2024/02/27 07:46:13;;;;;;;6.97;0.95;;;;;;;6.08;100.00;100517.75;4992674;28;20656;-96
2024/02/27 07:48:40;;;;;;;5.28;0.70;;;;;;;6.12;100.00;100519.19;4960211;28;20532;-95
2024/02/27 07:51:06;;;;;;;6.47;1.10;;;;;;;6.11;100.00;100520.16;4953380;28;20042;-95
2024/02/27 07:53:33;;;;;;;7.80;0.90;;;;;;;6.15;100.00;100518.13;4960604;28;20076;-96
2024/02/27 07:55:59;;;;;;;10.95;0.77;;;;;;;6.19;100.00;100516.97;4955154;28;20590;-95
2024/02/27 07:58:24;;;;;;;5.50;1.17;;;;;;;6.23;100.00;100525.47;4956012;28;20121;-96
2024/02/27 08:00:50;;;;;;;7.15;1.17;;;;;;;6.27;100.00;100524.28;4957101;28;20435;-96
2024/02/27 08:03:16;;;;;;;4.28;0.70;;;;;;;6.25;100.00;100508.63;4975191;28;20450;-96
2024/02/27 08:05:42;;;;;;;9.90;1.30;;;;;;;6.31;100.00;100508.19;4960248;28;20047;-96
2024/02/27 08:08:13;;;;;;;6.32;0.90;;;;;;;6.39;100.00;100509.38;4961873;28;20045;-96
2024/02/27 08:10:39;;;;;;;9.85;1.35;;;;;;;6.42;100.00;100499.50;4958536;28;20042;-96
2024/02/27 08:13:05;;;;;;;11.50;1.33;;;;;;;6.46;100.00;100500.09;4960168;28;20064;-96
2024/02/27 08:15:31;;;;;;;6.90;0.88;;;;;;;6.54;100.00;100499.53;4947040;28;20061;-96
2024/02/27 08:17:57;;;;;;;6.45;1.35;;;;;;;6.58;100.00;100496.53;4970171;28;20066;-95
2024/02/27 08:20:23;;;;;;;6.07;1.15;;;;;;;6.63;100.00;100493.56;4976000;28;20526;-96
2024/02/27 08:22:48;;;;;;;7.47;1.67;;;;;;;6.66;100.00;100492.47;4956027;28;20045;-95
2024/02/27 08:25:14;;;;;;;9.35;1.30;;;;;;;6.72;100.00;100497.25;4985512;28;21095;-96
2024/02/27 08:27:40;;;;;;;5.40;0.80;;;;;;;6.74;100.00;100490.09;4972820;28;20049;-95
2024/02/27 08:30:07;;;;;;;8.02;0.75;;;;;;;6.76;100.00;100484.72;4946521;28;20034;-95
2024/02/27 08:32:33;;;;;;;6.57;1.35;;;;;;;6.74;100.00;100484.84;4973577;28;20058;-96
2024/02/27 08:34:59;;;;;;;9.77;1.15;;;;;;;6.78;100.00;100481.06;4970063;28;20046;-96
2024/02/27 08:37:25;;;;;;;8.98;0.90;;;;;;;6.82;100.00;100479.84;4958393;28;20079;-96
2024/02/27 08:39:51;;;;;;;7.72;1.10;;;;;;;6.89;100.00;100482.00;4984003;28;20045;-96
2024/02/27 08:42:17;;;;;;;6.38;1.08;;;;;;;6.89;100.00;100466.22;4954480;28;20030;-96
2024/02/27 08:44:43;;;;;;;11.65;1.40;;;;;;;6.90;100.00;100475.78;4958091;28;20042;-96
2024/02/27 08:47:09;;;;;;;8.18;0.88;;;;;;;6.95;100.00;100484.16;4956426;28;20065;-95
2024/02/27 08:49:35;;;;;;;11.48;1.65;;;;;;;6.99;100.00;100476.88;4973874;28;20141;-96
2024/02/27 08:52:00;;;;;;;7.78;1.23;;;;;;;7.02;100.00;100480.09;4973970;28;20050;-95
2024/02/27 08:54:26;;;;;;;6.55;0.95;;;;;;;7.03;100.00;100473.88;4949192;28;20058;-94
2024/02/27 08:56:52;;;;;;;6.43;0.80;;;;;;;7.04;100.00;100467.66;4953451;28;20042;-96
2024/02/27 08:59:18;;;;;;;7.30;1.17;;;;;;;7.06;100.00;100467.53;4956617;28;20394;-95
2024/02/27 09:01:44;;;;;;;4.47;0.50;;;;;;;7.10;100.00;100463.72;4971377;28;20034;-95
2024/02/27 09:04:09;;;;;;;7.60;1.08;;;;;;;7.15;100.00;100458.91;4947677;28;20044;-95
2024/02/27 09:06:43;;;;;;;6.18;0.65;;;;;;;7.24;100.00;100465.25;4957207;28;20038;-95
2024/02/27 09:09:08;;;;;;;9.77;1.02;;;;;;;7.24;100.00;100461.78;4980956;28;20035;-93
2024/02/27 09:11:34;;;;;;;3.22;0.75;;;;;;;7.29;100.00;100462.25;4955427;28;20037;-95
2024/02/27 09:14:00;;;;;;;3.60;0.98;;;;;;;7.30;100.00;100456.88;4970361;28;20458;-95
2024/02/27 09:16:26;;;;;;;7.68;0.70;;;;;;;7.32;100.00;100459.38;4961827;28;20037;-94
2024/02/27 09:18:52;;;;;;;10.80;1.00;;;;;;;7.33;100.00;100447.91;4970173;28;20122;-95
2024/02/27 09:21:18;;;;;;;4.75;0.60;;;;;;;7.42;100.00;100457.66;4955068;28;20394;-95
2024/02/27 09:23:44;;;;;;;6.43;0.60;;;;;;;7.44;100.00;100449.66;4945653;28;20080;-94
2024/02/27 09:26:09;;;;;;;4.10;0.73;;;;;;;7.47;100.00;100454.66;4958077;28;20034;-95
2024/02/27 09:28:35;;;;;;;5.65;0.80;;;;;;;7.49;100.00;100452.75;4972125;28;20030;-94
2024/02/27 09:31:04;;;;;;;5.68;0.60;;;;;;;7.54;100.00;100455.03;4955261;28;20518;-95
2024/02/27 09:33:30;;;;;;;8.82;0.65;;;;;;;7.56;100.00;100450.47;4968844;28;20050;-94
2024/02/27 09:35:56;;;;;;;5.43;1.48;;;;;;;7.57;100.00;100450.34;4965612;28;20034;-95
2024/02/27 09:38:22;;;;;;;7.60;0.57;;;;;;;7.60;100.00;100445.81;4968142;28;20138;-94
2024/02/27 09:40:50;;;;;;;3.20;0.60;;;;;;;7.62;100.00;100447.34;4972086;28;20070;-95
2024/02/27 09:43:22;;;;;;;3.13;0.52;;;;;;;7.74;100.00;100450.75;4971779;28;20469;-94
2024/02/27 09:45:48;;;;;;;3.58;0.57;;;;;;;7.71;100.00;100447.56;4971663;28;20092;-95
2024/02/27 09:48:18;;;;;;;3.40;0.60;;;;;;;7.77;100.00;100442.59;4990114;28;20038;-95
2024/02/27 09:50:47;;;;;;;5.47;0.57;;;;;;;7.80;100.00;100447.63;4953452;28;20035;-95
2024/02/27 09:53:15;;;;;;;1.10;0.55;;;;;;;7.79;100.00;100445.97;4956678;28;20049;-88
2024/02/27 09:55:41;;;;;;;4.88;0.68;;;;;;;7.80;100.00;100436.28;4989873;28;20641;-89
2024/02/27 09:58:09;;;;;;;1.55;0.45;;;;;;;7.87;100.00;100442.69;4958214;28;20041;-95
2024/02/27 10:00:35;;;;;;;4.28;0.50;;;;;;;7.85;100.00;100434.09;4955993;28;20041;-95
2024/02/27 10:03:02;;;;;;;8.35;0.60;;;;;;;7.92;100.00;100431.78;4955393;28;20415;-95
2024/02/27 10:05:29;;;;;;;2.80;0.50;;;;;;;7.95;100.00;100431.53;4958434;28;20795;-96
2024/02/27 10:07:57;;;;;;;4.30;0.50;;;;;;;7.97;100.00;100431.41;4974630;28;20035;-95
2024/02/27 10:10:23;;;;;;;2.20;0.50;;;;;;;8.00;100.00;100434.63;4948650;28;20026;-95
2024/02/27 10:12:49;;;;;;;1.63;0.35;;;;;;;8.02;100.00;100423.97;4943618;28;23807;-95
2024/02/27 10:15:15;;;;;;;3.10;0.57;;;;;;;8.06;100.00;100422.72;4967021;28;20042;-95
2024/02/27 10:17:43;;;;;;;5.35;0.98;;;;;;;8.12;100.00;100426.66;4973981;28;20069;-95
2024/02/27 10:20:12;;;;;;;3.58;0.52;;;;;;;8.16;100.00;100428.06;4982697;28;20027;-95
2024/02/27 10:22:40;;;;;;;2.22;0.43;;;;;;;8.16;100.00;100420.16;4969115;28;20110;-94
2024/02/27 10:25:09;;;;;;;5.00;0.60;;;;;;;8.24;100.00;100432.69;4947537;28;20035;-96
2024/02/27 10:27:37;;;;;;;3.28;0.80;;;;;;;8.25;100.00;100431.75;4959554;28;20045;-88
2024/02/27 10:30:05;;;;;;;1.05;0.30;;;;;;;8.31;100.00;100426.78;4961178;28;20406;-87
2024/02/27 10:32:35;;;;;;;3.10;2.33;;;;;;;8.40;100.00;100424.31;4964239;28;20066;-89
2024/02/27 10:35:04;;;;;;;13.05;10.07;;;;;;;8.46;100.00;100430.88;4963047;28;20031;-88
2024/02/27 10:37:35;;;;;;;4.35;1.58;;;;;;;8.43;100.00;100434.59;4970894;28;20133;-88
2024/02/27 10:40:02;;;;;;;9.23;3.03;;;;;;;8.47;100.00;100436.03;4954831;28;20053;-87
2024/02/27 10:42:28;;;;;;;5.10;2.22;;;;;;;8.47;100.00;100432.56;4967981;28;20035;-96
2024/02/27 10:44:55;;;;;;;5.20;3.70;;;;;;;8.54;100.00;100447.72;4969246;28;20030;-95
2024/02/27 10:47:25;;;;;;;3.78;0.85;;;;;;;8.59;100.00;100451.75;4965696;28;20129;-96
2024/02/27 10:49:54;;;;;;;4.75;2.30;;;;;;;8.62;100.00;100451.50;4956724;28;20038;-95
2024/02/27 10:52:26;;;;;;;3.20;1.88;;;;;;;8.61;100.00;100450.69;4972548;28;20061;-96
2024/02/27 10:54:53;;;;;;;3.75;2.80;;;;;;;8.63;100.00;100453.19;4957311;28;20045;-96
2024/02/27 10:57:19;;;;;;;5.47;1.00;;;;;;;8.66;100.00;100461.63;4953208;28;20054;-95
2024/02/27 10:59:46;;;;;;;5.72;0.60;;;;;;;8.71;100.00;100466.53;4952917;28;20038;-95
2024/02/27 11:02:19;;;;;;;2.70;0.57;;;;;;;8.79;100.00;100469.34;4966910;28;20124;-95
2024/02/27 11:04:46;;;;;;;2.55;0.50;;;;;;;8.78;100.00;100465.03;4960664;28;20061;-95
2024/02/27 11:07:15;;;;;;;2.95;0.50;;;;;;;8.92;100.00;100469.13;4969377;28;20035;-94
2024/02/27 11:09:43;;;;;;;0.68;0.38;;;;;;;9.06;100.00;100461.81;4988330;28;20038;-94
2024/02/27 11:12:14;;;;;;;2.75;0.63;;;;;;;9.21;100.00;100458.78;4956950;28;20461;-95
2024/02/27 11:14:57;;;;;;;2.08;0.30;;;;;;;9.45;100.00;100468.13;4976094;28;20971;-95
2024/02/27 11:17:23;;;;;;;0.65;0.30;;;;;;;9.59;100.00;100475.66;4953922;28;20042;-89
2024/02/27 11:19:51;;;;;;;3.20;0.30;;;;;;;9.80;100.00;100477.34;4970787;28;20089;-88
2024/02/27 11:22:20;;;;;;;2.35;0.30;;;;;;;9.87;100.00;100467.91;4954553;28;20102;-88
2024/02/27 11:24:46;;;;;;;3.35;0.40;;;;;;;10.00;100.00;100472.09;4986717;28;20031;-88